Portada
METAR-TAF:

METAR-TAF

Aeropuertos :

Aeropuerto de Toulon-Hyères

Tolón, Francia

latitud: 43-06N, longitud: 006-09E, altitud: 3 m

Observación

El informe se hizo hace 15 minutos, a las 12:00 UTC
Viento 7 kt del sureste, variando entre este y sur
Temperatura 18°C
Humedad 39%
Presión 1020 hPa
Visibilidad 10 km o más
sin nubes por debajo de 1500 m y sin presencia de cumulonimbus.

METAR: LFTH 041200Z AUTO 13007KT 100V170 CAVOK 18/04 Q1020 NOSIG

Hora: 14:15 (12:15 UTC)

Pronóstico

El informe se hizo hace 4 horas y 15 minutos, a las 08:00 UTC
Pronóstico válido del 04 a las 09 UTC al 05 a las 09 UTC
Viento 10 kt del este-sureste
Visibilidad 10 km o más
sin nubes por debajo de 1500 m y sin presencia de cumulonimbus.
Evolucionando progresivamente
del 04 a las 18 UTC al 04 a las 20 UTC
Viento 5 kt con dirección variable

TAF: LFTH 040800Z 0409/0509 12010KT CAVOK BECMG 0418/0420 VRB05KT

Observaciones y pronósticos meteorológicos de más de 4000 aeropuertos (mensajes METAR y TAF).

Los puntos amarillos y rojos representan las estaciones disponibles.

Ponga el ratón en el punto deseado para ver el nombre de la estación.

Haga clic para ver las observaciones y los pronósticos meteorológicos.

Para cambiar el mapa : haga clic en los botones verdes con una cruz de color negro para hacer un zoom, en el botón verde con un guión para alejar o en las flechas verdes para mapas adyacentes.


METAR-TAF: